sensor_id;sensor_type;location;lat;lon;timestamp;P1;durP1;ratioP1;P2;durP2;ratioP2
10471;SDS011;5283;48.876;8.962;2022-12-13T00:01:30;33.70;;;18.80;;
10471;SDS011;5283;48.876;8.962;2022-12-13T00:03:58;37.93;;;18.70;;
10471;SDS011;5283;48.876;8.962;2022-12-13T00:06:28;35.70;;;19.87;;
10471;SDS011;5283;48.876;8.962;2022-12-13T00:08:56;36.70;;;19.33;;
10471;SDS011;5283;48.876;8.962;2022-12-13T00:11:23;31.20;;;18.00;;
10471;SDS011;5283;48.876;8.962;2022-12-13T00:13:50;37.77;;;20.03;;
10471;SDS011;5283;48.876;8.962;2022-12-13T00:16:18;36.20;;;18.97;;
10471;SDS011;5283;48.876;8.962;2022-12-13T00:18:50;35.73;;;20.63;;
10471;SDS011;5283;48.876;8.962;2022-12-13T00:21:19;33.27;;;20.03;;
10471;SDS011;5283;48.876;8.962;2022-12-13T00:23:47;37.47;;;19.47;;
10471;SDS011;5283;48.876;8.962;2022-12-13T00:26:22;41.70;;;20.27;;
10471;SDS011;5283;48.876;8.962;2022-12-13T00:28:50;37.17;;;19.47;;
10471;SDS011;5283;48.876;8.962;2022-12-13T00:31:18;36.30;;;20.00;;
10471;SDS011;5283;48.876;8.962;2022-12-13T00:34:06;39.50;;;19.50;;
10471;SDS011;5283;48.876;8.962;2022-12-13T00:36:32;41.70;;;20.30;;
10471;SDS011;5283;48.876;8.962;2022-12-13T00:38:59;38.80;;;19.47;;
10471;SDS011;5283;48.876;8.962;2022-12-13T00:41:30;38.07;;;19.27;;
10471;SDS011;5283;48.876;8.962;2022-12-13T00:43:59;34.30;;;18.63;;
10471;SDS011;5283;48.876;8.962;2022-12-13T00:46:26;39.20;;;19.93;;
10471;SDS011;5283;48.876;8.962;2022-12-13T00:48:55;39.67;;;20.20;;
10471;SDS011;5283;48.876;8.962;2022-12-13T00:51:24;37.37;;;19.70;;
10471;SDS011;5283;48.876;8.962;2022-12-13T00:53:51;34.23;;;18.57;;
10471;SDS011;5283;48.876;8.962;2022-12-13T00:56:20;37.73;;;18.67;;
10471;SDS011;5283;48.876;8.962;2022-12-13T00:58:50;35.03;;;18.57;;
10471;SDS011;5283;48.876;8.962;2022-12-13T01:01:20;35.93;;;19.23;;
10471;SDS011;5283;48.876;8.962;2022-12-13T01:03:49;34.50;;;18.23;;
10471;SDS011;5283;48.876;8.962;2022-12-13T01:06:20;35.30;;;19.40;;
10471;SDS011;5283;48.876;8.962;2022-12-13T01:08:50;39.13;;;19.30;;
10471;SDS011;5283;48.876;8.962;2022-12-13T01:11:17;36.40;;;18.83;;
10471;SDS011;5283;48.876;8.962;2022-12-13T01:13:44;31.63;;;17.53;;
10471;SDS011;5283;48.876;8.962;2022-12-13T01:16:11;30.67;;;16.83;;
10471;SDS011;5283;48.876;8.962;2022-12-13T01:18:39;33.27;;;17.47;;
10471;SDS011;5283;48.876;8.962;2022-12-13T01:21:07;32.27;;;16.73;;
10471;SDS011;5283;48.876;8.962;2022-12-13T01:23:34;33.20;;;17.37;;
10471;SDS011;5283;48.876;8.962;2022-12-13T01:26:02;32.87;;;17.10;;
10471;SDS011;5283;48.876;8.962;2022-12-13T01:28:30;31.20;;;16.97;;
10471;SDS011;5283;48.876;8.962;2022-12-13T01:31:02;28.57;;;16.57;;
10471;SDS011;5283;48.876;8.962;2022-12-13T01:33:32;31.60;;;16.20;;
10471;SDS011;5283;48.876;8.962;2022-12-13T01:36:00;30.90;;;15.97;;
10471;SDS011;5283;48.876;8.962;2022-12-13T01:38:28;34.27;;;16.90;;
10471;SDS011;5283;48.876;8.962;2022-12-13T01:40:55;29.40;;;16.10;;
10471;SDS011;5283;48.876;8.962;2022-12-13T01:43:27;32.33;;;17.20;;
10471;SDS011;5283;48.876;8.962;2022-12-13T01:46:06;32.63;;;18.10;;
10471;SDS011;5283;48.876;8.962;2022-12-13T01:48:35;36.17;;;18.03;;
10471;SDS011;5283;48.876;8.962;2022-12-13T01:51:07;30.97;;;16.27;;
10471;SDS011;5283;48.876;8.962;2022-12-13T01:53:36;33.07;;;18.20;;
10471;SDS011;5283;48.876;8.962;2022-12-13T01:56:07;30.63;;;18.40;;
10471;SDS011;5283;48.876;8.962;2022-12-13T01:58:41;32.97;;;17.20;;
10471;SDS011;5283;48.876;8.962;2022-12-13T02:01:09;35.00;;;18.17;;
10471;SDS011;5283;48.876;8.962;2022-12-13T02:03:36;32.93;;;17.80;;
10471;SDS011;5283;48.876;8.962;2022-12-13T02:06:04;33.57;;;17.13;;
10471;SDS011;5283;48.876;8.962;2022-12-13T02:08:35;32.20;;;17.20;;
10471;SDS011;5283;48.876;8.962;2022-12-13T02:11:05;33.93;;;18.30;;
10471;SDS011;5283;48.876;8.962;2022-12-13T02:13:32;31.57;;;17.57;;
10471;SDS011;5283;48.876;8.962;2022-12-13T02:16:12;35.03;;;18.13;;
10471;SDS011;5283;48.876;8.962;2022-12-13T02:32:31;32.70;;;16.93;;
10471;SDS011;5283;48.876;8.962;2022-12-13T02:35:10;30.63;;;16.10;;
10471;SDS011;5283;48.876;8.962;2022-12-13T02:40:45;31.93;;;17.63;;
10471;SDS011;5283;48.876;8.962;2022-12-13T02:43:20;29.87;;;16.77;;
10471;SDS011;5283;48.876;8.962;2022-12-13T02:45:52;31.33;;;17.03;;
10471;SDS011;5283;48.876;8.962;2022-12-13T02:48:24;31.47;;;16.30;;
10471;SDS011;5283;48.876;8.962;2022-12-13T02:50:55;34.83;;;17.53;;
10471;SDS011;5283;48.876;8.962;2022-12-13T02:53:23;31.43;;;16.97;;
10471;SDS011;5283;48.876;8.962;2022-12-13T02:55:51;36.40;;;16.93;;
10471;SDS011;5283;48.876;8.962;2022-12-13T02:58:22;30.10;;;16.73;;
10471;SDS011;5283;48.876;8.962;2022-12-13T03:00:55;28.53;;;16.23;;
10471;SDS011;5283;48.876;8.962;2022-12-13T03:03:53;34.53;;;17.03;;
10471;SDS011;5283;48.876;8.962;2022-12-13T03:18:21;32.10;;;16.20;;
10471;SDS011;5283;48.876;8.962;2022-12-13T03:20:52;30.17;;;17.17;;
10471;SDS011;5283;48.876;8.962;2022-12-13T03:23:24;29.77;;;15.87;;
10471;SDS011;5283;48.876;8.962;2022-12-13T03:25:53;31.93;;;18.17;;
10471;SDS011;5283;48.876;8.962;2022-12-13T03:28:22;31.63;;;17.67;;
10471;SDS011;5283;48.876;8.962;2022-12-13T03:30:49;27.33;;;15.80;;
10471;SDS011;5283;48.876;8.962;2022-12-13T03:33:16;27.93;;;16.20;;
10471;SDS011;5283;48.876;8.962;2022-12-13T03:35:42;28.13;;;16.20;;
10471;SDS011;5283;48.876;8.962;2022-12-13T03:38:14;27.90;;;15.67;;
10471;SDS011;5283;48.876;8.962;2022-12-13T03:40:42;35.47;;;16.03;;
10471;SDS011;5283;48.876;8.962;2022-12-13T03:43:09;29.07;;;16.57;;
10471;SDS011;5283;48.876;8.962;2022-12-13T03:45:36;29.53;;;16.67;;
10471;SDS011;5283;48.876;8.962;2022-12-13T03:48:03;30.03;;;16.57;;
10471;SDS011;5283;48.876;8.962;2022-12-13T03:50:29;28.13;;;15.87;;
10471;SDS011;5283;48.876;8.962;2022-12-13T03:52:57;27.40;;;16.10;;
10471;SDS011;5283;48.876;8.962;2022-12-13T03:55:24;30.67;;;16.23;;
10471;SDS011;5283;48.876;8.962;2022-12-13T03:57:52;28.17;;;15.73;;
10471;SDS011;5283;48.876;8.962;2022-12-13T04:00:19;28.63;;;15.23;;
10471;SDS011;5283;48.876;8.962;2022-12-13T04:02:46;27.17;;;15.17;;
10471;SDS011;5283;48.876;8.962;2022-12-13T04:05:12;26.93;;;14.43;;
10471;SDS011;5283;48.876;8.962;2022-12-13T04:07:39;26.30;;;15.73;;
10471;SDS011;5283;48.876;8.962;2022-12-13T04:10:06;31.70;;;14.97;;
10471;SDS011;5283;48.876;8.962;2022-12-13T04:12:33;27.23;;;14.30;;
10471;SDS011;5283;48.876;8.962;2022-12-13T04:15:18;25.87;;;13.70;;
10471;SDS011;5283;48.876;8.962;2022-12-13T04:17:45;25.47;;;14.70;;
10471;SDS011;5283;48.876;8.962;2022-12-13T04:20:12;28.87;;;15.07;;
10471;SDS011;5283;48.876;8.962;2022-12-13T04:22:39;27.20;;;14.63;;
10471;SDS011;5283;48.876;8.962;2022-12-13T04:25:05;24.20;;;14.40;;
10471;SDS011;5283;48.876;8.962;2022-12-13T04:27:33;27.03;;;14.80;;
10471;SDS011;5283;48.876;8.962;2022-12-13T04:29:59;26.97;;;14.83;;
10471;SDS011;5283;48.876;8.962;2022-12-13T04:32:26;27.63;;;15.57;;
10471;SDS011;5283;48.876;8.962;2022-12-13T04:34:53;27.53;;;14.67;;
10471;SDS011;5283;48.876;8.962;2022-12-13T04:37:20;26.77;;;14.53;;
10471;SDS011;5283;48.876;8.962;2022-12-13T04:39:46;29.07;;;15.07;;
10471;SDS011;5283;48.876;8.962;2022-12-13T04:42:13;30.27;;;15.10;;
10471;SDS011;5283;48.876;8.962;2022-12-13T04:44:40;28.33;;;14.97;;
10471;SDS011;5283;48.876;8.962;2022-12-13T04:47:09;28.47;;;15.37;;
10471;SDS011;5283;48.876;8.962;2022-12-13T04:49:36;24.63;;;15.50;;
10471;SDS011;5283;48.876;8.962;2022-12-13T04:52:03;32.50;;;15.63;;
10471;SDS011;5283;48.876;8.962;2022-12-13T04:54:30;29.97;;;15.27;;
10471;SDS011;5283;48.876;8.962;2022-12-13T04:56:57;24.17;;;14.03;;
10471;SDS011;5283;48.876;8.962;2022-12-13T04:59:24;31.80;;;16.63;;
10471;SDS011;5283;48.876;8.962;2022-12-13T05:01:51;30.03;;;15.07;;
10471;SDS011;5283;48.876;8.962;2022-12-13T05:04:18;29.67;;;14.60;;
10471;SDS011;5283;48.876;8.962;2022-12-13T05:06:44;26.53;;;14.77;;
10471;SDS011;5283;48.876;8.962;2022-12-13T05:09:11;28.23;;;14.40;;
10471;SDS011;5283;48.876;8.962;2022-12-13T05:11:38;24.67;;;13.93;;
10471;SDS011;5283;48.876;8.962;2022-12-13T05:14:05;23.90;;;14.37;;
10471;SDS011;5283;48.876;8.962;2022-12-13T05:16:32;29.03;;;14.60;;
10471;SDS011;5283;48.876;8.962;2022-12-13T05:18:59;28.23;;;14.90;;
10471;SDS011;5283;48.876;8.962;2022-12-13T05:21:25;28.33;;;14.80;;
10471;SDS011;5283;48.876;8.962;2022-12-13T05:23:52;26.20;;;15.63;;
10471;SDS011;5283;48.876;8.962;2022-12-13T05:26:19;28.63;;;15.60;;
10471;SDS011;5283;48.876;8.962;2022-12-13T05:28:45;28.67;;;15.87;;
10471;SDS011;5283;48.876;8.962;2022-12-13T05:31:12;28.73;;;15.10;;
10471;SDS011;5283;48.876;8.962;2022-12-13T05:33:39;25.07;;;14.43;;
10471;SDS011;5283;48.876;8.962;2022-12-13T05:36:06;27.97;;;15.83;;
10471;SDS011;5283;48.876;8.962;2022-12-13T05:38:33;32.60;;;16.53;;
10471;SDS011;5283;48.876;8.962;2022-12-13T05:41:00;30.97;;;15.73;;
10471;SDS011;5283;48.876;8.962;2022-12-13T05:43:26;26.83;;;15.33;;
10471;SDS011;5283;48.876;8.962;2022-12-13T05:45:53;30.03;;;13.97;;
10471;SDS011;5283;48.876;8.962;2022-12-13T05:48:20;30.57;;;15.93;;
10471;SDS011;5283;48.876;8.962;2022-12-13T05:50:47;30.43;;;16.53;;
10471;SDS011;5283;48.876;8.962;2022-12-13T05:53:14;31.47;;;14.97;;
10471;SDS011;5283;48.876;8.962;2022-12-13T05:55:41;27.83;;;15.07;;
10471;SDS011;5283;48.876;8.962;2022-12-13T05:58:09;26.87;;;15.20;;
10471;SDS011;5283;48.876;8.962;2022-12-13T06:00:38;33.60;;;17.00;;
10471;SDS011;5283;48.876;8.962;2022-12-13T06:03:05;30.50;;;16.03;;
10471;SDS011;5283;48.876;8.962;2022-12-13T06:05:32;31.30;;;15.93;;
10471;SDS011;5283;48.876;8.962;2022-12-13T06:07:59;29.13;;;16.50;;
10471;SDS011;5283;48.876;8.962;2022-12-13T06:10:26;31.27;;;15.23;;
10471;SDS011;5283;48.876;8.962;2022-12-13T06:12:53;28.47;;;16.53;;
10471;SDS011;5283;48.876;8.962;2022-12-13T06:15:20;32.60;;;16.13;;
10471;SDS011;5283;48.876;8.962;2022-12-13T06:17:48;27.13;;;15.47;;
10471;SDS011;5283;48.876;8.962;2022-12-13T06:20:15;28.53;;;15.43;;
10471;SDS011;5283;48.876;8.962;2022-12-13T06:22:41;30.70;;;17.07;;
10471;SDS011;5283;48.876;8.962;2022-12-13T06:25:08;28.23;;;15.93;;
10471;SDS011;5283;48.876;8.962;2022-12-13T06:27:35;37.83;;;16.67;;
10471;SDS011;5283;48.876;8.962;2022-12-13T06:30:02;32.40;;;17.53;;
10471;SDS011;5283;48.876;8.962;2022-12-13T06:32:29;31.07;;;16.70;;
10471;SDS011;5283;48.876;8.962;2022-12-13T06:34:56;33.40;;;16.20;;
10471;SDS011;5283;48.876;8.962;2022-12-13T06:37:22;30.17;;;17.40;;
10471;SDS011;5283;48.876;8.962;2022-12-13T06:39:49;31.57;;;16.40;;
10471;SDS011;5283;48.876;8.962;2022-12-13T06:42:17;33.80;;;15.87;;
10471;SDS011;5283;48.876;8.962;2022-12-13T06:44:44;34.20;;;15.87;;
10471;SDS011;5283;48.876;8.962;2022-12-13T06:47:11;30.23;;;15.63;;
10471;SDS011;5283;48.876;8.962;2022-12-13T06:49:41;30.00;;;15.97;;
10471;SDS011;5283;48.876;8.962;2022-12-13T06:52:09;33.43;;;16.07;;
10471;SDS011;5283;48.876;8.962;2022-12-13T06:54:37;30.90;;;16.70;;
10471;SDS011;5283;48.876;8.962;2022-12-13T06:57:04;35.57;;;15.87;;
10471;SDS011;5283;48.876;8.962;2022-12-13T06:59:31;33.63;;;17.27;;
10471;SDS011;5283;48.876;8.962;2022-12-13T07:01:58;32.83;;;16.60;;
10471;SDS011;5283;48.876;8.962;2022-12-13T07:04:24;34.30;;;17.70;;
10471;SDS011;5283;48.876;8.962;2022-12-13T07:06:51;33.73;;;16.80;;
10471;SDS011;5283;48.876;8.962;2022-12-13T07:09:18;31.00;;;16.40;;
10471;SDS011;5283;48.876;8.962;2022-12-13T07:11:45;30.63;;;17.07;;
10471;SDS011;5283;48.876;8.962;2022-12-13T07:14:15;30.60;;;16.73;;
10471;SDS011;5283;48.876;8.962;2022-12-13T07:16:41;32.40;;;16.03;;
10471;SDS011;5283;48.876;8.962;2022-12-13T07:19:08;30.03;;;16.87;;
10471;SDS011;5283;48.876;8.962;2022-12-13T07:21:36;31.83;;;17.27;;
10471;SDS011;5283;48.876;8.962;2022-12-13T07:24:05;34.50;;;16.93;;
10471;SDS011;5283;48.876;8.962;2022-12-13T07:26:32;28.07;;;15.00;;
10471;SDS011;5283;48.876;8.962;2022-12-13T07:28:59;30.17;;;17.00;;
10471;SDS011;5283;48.876;8.962;2022-12-13T07:31:25;34.80;;;17.53;;
10471;SDS011;5283;48.876;8.962;2022-12-13T07:33:58;31.20;;;17.10;;
10471;SDS011;5283;48.876;8.962;2022-12-13T07:36:25;33.63;;;17.40;;
10471;SDS011;5283;48.876;8.962;2022-12-13T07:38:52;31.63;;;16.87;;
10471;SDS011;5283;48.876;8.962;2022-12-13T07:41:21;34.03;;;17.60;;
10471;SDS011;5283;48.876;8.962;2022-12-13T07:43:48;31.70;;;18.20;;
10471;SDS011;5283;48.876;8.962;2022-12-13T07:46:15;39.53;;;19.50;;
10471;SDS011;5283;48.876;8.962;2022-12-13T07:48:42;31.57;;;16.97;;
10471;SDS011;5283;48.876;8.962;2022-12-13T07:51:09;32.17;;;17.57;;
10471;SDS011;5283;48.876;8.962;2022-12-13T07:53:39;28.23;;;16.80;;
10471;SDS011;5283;48.876;8.962;2022-12-13T07:56:07;31.67;;;17.37;;
10471;SDS011;5283;48.876;8.962;2022-12-13T07:58:36;27.43;;;17.20;;
10471;SDS011;5283;48.876;8.962;2022-12-13T08:01:04;34.43;;;17.67;;
10471;SDS011;5283;48.876;8.962;2022-12-13T08:03:33;33.10;;;16.93;;
10471;SDS011;5283;48.876;8.962;2022-12-13T08:06:01;31.67;;;17.47;;
10471;SDS011;5283;48.876;8.962;2022-12-13T08:08:30;30.43;;;16.70;;
10471;SDS011;5283;48.876;8.962;2022-12-13T08:11:02;32.43;;;17.70;;
10471;SDS011;5283;48.876;8.962;2022-12-13T08:13:33;36.57;;;17.57;;
10471;SDS011;5283;48.876;8.962;2022-12-13T08:16:00;33.57;;;18.57;;
10471;SDS011;5283;48.876;8.962;2022-12-13T08:18:29;32.93;;;17.73;;
10471;SDS011;5283;48.876;8.962;2022-12-13T08:20:57;39.97;;;19.43;;
10471;SDS011;5283;48.876;8.962;2022-12-13T08:23:24;35.20;;;18.50;;
10471;SDS011;5283;48.876;8.962;2022-12-13T08:25:52;33.17;;;18.97;;
10471;SDS011;5283;48.876;8.962;2022-12-13T08:28:19;35.37;;;19.67;;
10471;SDS011;5283;48.876;8.962;2022-12-13T08:30:47;32.57;;;18.73;;
10471;SDS011;5283;48.876;8.962;2022-12-13T08:33:14;32.07;;;17.93;;
10471;SDS011;5283;48.876;8.962;2022-12-13T08:35:41;29.20;;;17.70;;
10471;SDS011;5283;48.876;8.962;2022-12-13T08:38:08;30.87;;;18.53;;
10471;SDS011;5283;48.876;8.962;2022-12-13T08:40:34;33.43;;;18.53;;
10471;SDS011;5283;48.876;8.962;2022-12-13T08:43:01;31.33;;;17.47;;
10471;SDS011;5283;48.876;8.962;2022-12-13T08:45:28;32.90;;;17.53;;
10471;SDS011;5283;48.876;8.962;2022-12-13T08:47:57;31.97;;;17.40;;
10471;SDS011;5283;48.876;8.962;2022-12-13T08:50:27;31.50;;;17.63;;
10471;SDS011;5283;48.876;8.962;2022-12-13T08:52:55;31.73;;;18.00;;
10471;SDS011;5283;48.876;8.962;2022-12-13T08:55:22;34.47;;;19.23;;
10471;SDS011;5283;48.876;8.962;2022-12-13T08:57:50;29.20;;;17.97;;
10471;SDS011;5283;48.876;8.962;2022-12-13T09:00:19;31.13;;;17.73;;
10471;SDS011;5283;48.876;8.962;2022-12-13T09:02:46;29.30;;;16.57;;
10471;SDS011;5283;48.876;8.962;2022-12-13T09:05:13;31.23;;;18.17;;
10471;SDS011;5283;48.876;8.962;2022-12-13T09:07:40;31.17;;;19.17;;
10471;SDS011;5283;48.876;8.962;2022-12-13T09:10:08;27.27;;;17.87;;
10471;SDS011;5283;48.876;8.962;2022-12-13T09:12:39;25.63;;;17.30;;
10471;SDS011;5283;48.876;8.962;2022-12-13T09:15:08;32.53;;;18.87;;
10471;SDS011;5283;48.876;8.962;2022-12-13T09:17:34;32.67;;;20.07;;
10471;SDS011;5283;48.876;8.962;2022-12-13T09:20:02;30.33;;;18.63;;
10471;SDS011;5283;48.876;8.962;2022-12-13T09:22:30;32.97;;;19.27;;
10471;SDS011;5283;48.876;8.962;2022-12-13T09:24:57;34.67;;;19.57;;
10471;SDS011;5283;48.876;8.962;2022-12-13T09:27:24;32.83;;;20.10;;
10471;SDS011;5283;48.876;8.962;2022-12-13T09:29:50;34.53;;;20.83;;
10471;SDS011;5283;48.876;8.962;2022-12-13T09:32:17;35.60;;;21.53;;
10471;SDS011;5283;48.876;8.962;2022-12-13T09:34:44;31.73;;;20.37;;
10471;SDS011;5283;48.876;8.962;2022-12-13T09:37:12;32.30;;;19.93;;
10471;SDS011;5283;48.876;8.962;2022-12-13T09:39:39;30.27;;;20.87;;
10471;SDS011;5283;48.876;8.962;2022-12-13T09:42:08;32.20;;;19.80;;
10471;SDS011;5283;48.876;8.962;2022-12-13T09:44:56;102.30;;;53.10;;
10471;SDS011;5283;48.876;8.962;2022-12-13T09:49:59;46.80;;;28.03;;
10471;SDS011;5283;48.876;8.962;2022-12-13T09:52:33;35.93;;;21.73;;
10471;SDS011;5283;48.876;8.962;2022-12-13T09:55:04;33.07;;;21.87;;
10471;SDS011;5283;48.876;8.962;2022-12-13T09:57:48;29.33;;;18.43;;
10471;SDS011;5283;48.876;8.962;2022-12-13T10:00:17;28.90;;;19.63;;
10471;SDS011;5283;48.876;8.962;2022-12-13T10:02:53;31.40;;;19.50;;
10471;SDS011;5283;48.876;8.962;2022-12-13T10:08:10;28.80;;;19.17;;
10471;SDS011;5283;48.876;8.962;2022-12-13T10:10:39;29.30;;;19.27;;
10471;SDS011;5283;48.876;8.962;2022-12-13T10:15:45;41.97;;;20.73;;
10471;SDS011;5283;48.876;8.962;2022-12-13T10:18:18;27.67;;;17.37;;
10471;SDS011;5283;48.876;8.962;2022-12-13T10:20:51;24.83;;;15.70;;
10471;SDS011;5283;48.876;8.962;2022-12-13T10:23:18;25.37;;;16.20;;
10471;SDS011;5283;48.876;8.962;2022-12-13T10:25:58;23.50;;;15.97;;
10471;SDS011;5283;48.876;8.962;2022-12-13T10:28:30;20.30;;;14.00;;
10471;SDS011;5283;48.876;8.962;2022-12-13T10:30:58;23.00;;;13.37;;
10471;SDS011;5283;48.876;8.962;2022-12-13T10:33:28;19.93;;;13.30;;
10471;SDS011;5283;48.876;8.962;2022-12-13T10:36:01;22.30;;;13.13;;
10471;SDS011;5283;48.876;8.962;2022-12-13T10:38:30;17.60;;;12.13;;
10471;SDS011;5283;48.876;8.962;2022-12-13T10:40:59;21.73;;;12.40;;
10471;SDS011;5283;48.876;8.962;2022-12-13T10:43:26;17.00;;;11.80;;
10471;SDS011;5283;48.876;8.962;2022-12-13T10:48:24;18.60;;;11.87;;
10471;SDS011;5283;48.876;8.962;2022-12-13T10:51:03;16.67;;;11.67;;
10471;SDS011;5283;48.876;8.962;2022-12-13T10:56:13;15.63;;;10.30;;
10471;SDS011;5283;48.876;8.962;2022-12-13T10:58:42;18.13;;;11.10;;
10471;SDS011;5283;48.876;8.962;2022-12-13T11:06:39;19.77;;;11.20;;
10471;SDS011;5283;48.876;8.962;2022-12-13T11:09:22;16.30;;;10.10;;
10471;SDS011;5283;48.876;8.962;2022-12-13T11:11:51;16.20;;;10.33;;
10471;SDS011;5283;48.876;8.962;2022-12-13T11:14:19;16.57;;;11.40;;
10471;SDS011;5283;48.876;8.962;2022-12-13T11:17:06;15.80;;;10.73;;
10471;SDS011;5283;48.876;8.962;2022-12-13T11:19:44;14.93;;;9.70;;
10471;SDS011;5283;48.876;8.962;2022-12-13T11:22:21;17.37;;;11.37;;
10471;SDS011;5283;48.876;8.962;2022-12-13T11:25:05;14.17;;;9.57;;
10471;SDS011;5283;48.876;8.962;2022-12-13T11:28:11;17.27;;;11.47;;
10471;SDS011;5283;48.876;8.962;2022-12-13T11:39:39;16.53;;;10.67;;
10471;SDS011;5283;48.876;8.962;2022-12-13T11:42:26;13.53;;;8.33;;
10471;SDS011;5283;48.876;8.962;2022-12-13T11:47:32;14.03;;;9.73;;
10471;SDS011;5283;48.876;8.962;2022-12-13T11:50:30;13.57;;;9.33;;
10471;SDS011;5283;48.876;8.962;2022-12-13T11:55:53;16.67;;;10.57;;
10471;SDS011;5283;48.876;8.962;2022-12-13T11:58:26;13.23;;;9.97;;
10471;SDS011;5283;48.876;8.962;2022-12-13T12:01:22;13.63;;;9.17;;
10471;SDS011;5283;48.876;8.962;2022-12-13T12:04:17;16.50;;;9.83;;
10471;SDS011;5283;48.876;8.962;2022-12-13T12:06:54;15.60;;;9.60;;
10471;SDS011;5283;48.876;8.962;2022-12-13T12:09:33;15.90;;;9.83;;
10471;SDS011;5283;48.876;8.962;2022-12-13T12:12:09;12.97;;;8.77;;
10471;SDS011;5283;48.876;8.962;2022-12-13T12:14:45;14.00;;;9.53;;
10471;SDS011;5283;48.876;8.962;2022-12-13T12:17:21;18.13;;;10.17;;
10471;SDS011;5283;48.876;8.962;2022-12-13T12:19:53;15.07;;;9.87;;
10471;SDS011;5283;48.876;8.962;2022-12-13T12:22:35;15.63;;;10.20;;
10471;SDS011;5283;48.876;8.962;2022-12-13T12:25:41;16.30;;;9.37;;
10471;SDS011;5283;48.876;8.962;2022-12-13T12:48:35;13.40;;;9.50;;
10471;SDS011;5283;48.876;8.962;2022-12-13T12:51:20;17.87;;;10.30;;
10471;SDS011;5283;48.876;8.962;2022-12-13T12:53:54;15.60;;;10.33;;
10471;SDS011;5283;48.876;8.962;2022-12-13T12:59:39;18.00;;;10.37;;
10471;SDS011;5283;48.876;8.962;2022-12-13T13:05:02;14.03;;;9.63;;
10471;SDS011;5283;48.876;8.962;2022-12-13T13:07:39;14.80;;;8.90;;
10471;SDS011;5283;48.876;8.962;2022-12-13T13:10:12;13.03;;;9.37;;
10471;SDS011;5283;48.876;8.962;2022-12-13T13:12:39;12.53;;;8.60;;
10471;SDS011;5283;48.876;8.962;2022-12-13T13:17:59;13.10;;;8.87;;
10471;SDS011;5283;48.876;8.962;2022-12-13T13:20:26;14.33;;;10.00;;
10471;SDS011;5283;48.876;8.962;2022-12-13T13:22:54;13.10;;;9.37;;
10471;SDS011;5283;48.876;8.962;2022-12-13T13:25:42;16.40;;;9.47;;
10471;SDS011;5283;48.876;8.962;2022-12-13T13:28:32;16.70;;;9.10;;
10471;SDS011;5283;48.876;8.962;2022-12-13T13:31:03;12.53;;;9.33;;
10471;SDS011;5283;48.876;8.962;2022-12-13T13:39:14;13.50;;;8.30;;
10471;SDS011;5283;48.876;8.962;2022-12-13T13:53:07;14.67;;;8.97;;
10471;SDS011;5283;48.876;8.962;2022-12-13T14:07:23;17.30;;;10.77;;
10471;SDS011;5283;48.876;8.962;2022-12-13T14:25:16;14.07;;;9.60;;
10471;SDS011;5283;48.876;8.962;2022-12-13T14:27:49;14.03;;;9.60;;
10471;SDS011;5283;48.876;8.962;2022-12-13T14:30:23;16.57;;;10.20;;
10471;SDS011;5283;48.876;8.962;2022-12-13T14:32:51;23.00;;;10.67;;
10471;SDS011;5283;48.876;8.962;2022-12-13T14:37:59;16.67;;;10.47;;
10471;SDS011;5283;48.876;8.962;2022-12-13T14:40:32;17.60;;;10.73;;
10471;SDS011;5283;48.876;8.962;2022-12-13T14:43:00;16.67;;;10.60;;
10471;SDS011;5283;48.876;8.962;2022-12-13T14:45:29;19.77;;;10.60;;
10471;SDS011;5283;48.876;8.962;2022-12-13T14:48:00;18.53;;;11.50;;
10471;SDS011;5283;48.876;8.962;2022-12-13T14:50:30;18.53;;;11.07;;
10471;SDS011;5283;48.876;8.962;2022-12-13T14:53:00;17.67;;;10.47;;
10471;SDS011;5283;48.876;8.962;2022-12-13T14:55:33;15.90;;;9.93;;
10471;SDS011;5283;48.876;8.962;2022-12-13T14:58:03;21.63;;;11.63;;
10471;SDS011;5283;48.876;8.962;2022-12-13T15:00:42;20.50;;;11.70;;
10471;SDS011;5283;48.876;8.962;2022-12-13T15:03:19;17.33;;;10.70;;
10471;SDS011;5283;48.876;8.962;2022-12-13T15:05:50;16.73;;;11.17;;
10471;SDS011;5283;48.876;8.962;2022-12-13T15:08:19;20.13;;;11.10;;
10471;SDS011;5283;48.876;8.962;2022-12-13T15:10:47;26.97;;;14.67;;
10471;SDS011;5283;48.876;8.962;2022-12-13T15:15:56;21.57;;;13.87;;
10471;SDS011;5283;48.876;8.962;2022-12-13T15:18:25;24.47;;;13.90;;
10471;SDS011;5283;48.876;8.962;2022-12-13T15:20:55;19.60;;;12.97;;
10471;SDS011;5283;48.876;8.962;2022-12-13T15:23:23;19.73;;;12.87;;
10471;SDS011;5283;48.876;8.962;2022-12-13T15:25:55;23.33;;;15.13;;
10471;SDS011;5283;48.876;8.962;2022-12-13T15:28:24;21.77;;;14.20;;
10471;SDS011;5283;48.876;8.962;2022-12-13T15:30:55;19.37;;;14.07;;
10471;SDS011;5283;48.876;8.962;2022-12-13T15:33:24;26.77;;;15.57;;
10471;SDS011;5283;48.876;8.962;2022-12-13T15:38:33;22.20;;;13.77;;
10471;SDS011;5283;48.876;8.962;2022-12-13T15:41:06;25.93;;;15.27;;
10471;SDS011;5283;48.876;8.962;2022-12-13T15:43:42;23.30;;;14.47;;
10471;SDS011;5283;48.876;8.962;2022-12-13T15:46:11;28.50;;;15.03;;
10471;SDS011;5283;48.876;8.962;2022-12-13T15:48:39;24.30;;;14.67;;
10471;SDS011;5283;48.876;8.962;2022-12-13T15:51:10;22.57;;;15.23;;
10471;SDS011;5283;48.876;8.962;2022-12-13T15:53:39;27.23;;;15.50;;
10471;SDS011;5283;48.876;8.962;2022-12-13T15:56:31;30.57;;;15.93;;
10471;SDS011;5283;48.876;8.962;2022-12-13T15:58:59;24.70;;;15.90;;
10471;SDS011;5283;48.876;8.962;2022-12-13T16:01:27;23.30;;;15.30;;
10471;SDS011;5283;48.876;8.962;2022-12-13T16:03:56;25.80;;;15.80;;
10471;SDS011;5283;48.876;8.962;2022-12-13T16:06:24;24.87;;;16.33;;
10471;SDS011;5283;48.876;8.962;2022-12-13T16:08:53;26.73;;;15.87;;
10471;SDS011;5283;48.876;8.962;2022-12-13T16:11:27;24.80;;;15.00;;
10471;SDS011;5283;48.876;8.962;2022-12-13T16:17:13;24.67;;;16.27;;
10471;SDS011;5283;48.876;8.962;2022-12-13T16:19:52;26.40;;;16.53;;
10471;SDS011;5283;48.876;8.962;2022-12-13T16:22:21;25.73;;;15.87;;
10471;SDS011;5283;48.876;8.962;2022-12-13T16:24:49;27.23;;;14.87;;
10471;SDS011;5283;48.876;8.962;2022-12-13T16:27:17;21.97;;;14.07;;
10471;SDS011;5283;48.876;8.962;2022-12-13T16:29:43;18.97;;;12.67;;
10471;SDS011;5283;48.876;8.962;2022-12-13T16:32:10;19.57;;;12.53;;
10471;SDS011;5283;48.876;8.962;2022-12-13T16:34:37;20.73;;;12.63;;
10471;SDS011;5283;48.876;8.962;2022-12-13T16:37:04;19.23;;;12.37;;
10471;SDS011;5283;48.876;8.962;2022-12-13T16:39:31;21.97;;;12.87;;
10471;SDS011;5283;48.876;8.962;2022-12-13T16:41:58;16.07;;;11.50;;
10471;SDS011;5283;48.876;8.962;2022-12-13T16:44:37;20.90;;;12.43;;
10471;SDS011;5283;48.876;8.962;2022-12-13T16:47:07;21.83;;;13.47;;
10471;SDS011;5283;48.876;8.962;2022-12-13T16:49:44;20.73;;;12.40;;
10471;SDS011;5283;48.876;8.962;2022-12-13T16:52:10;22.80;;;12.10;;
10471;SDS011;5283;48.876;8.962;2022-12-13T16:54:37;25.50;;;15.67;;
10471;SDS011;5283;48.876;8.962;2022-12-13T16:57:04;20.87;;;13.53;;
10471;SDS011;5283;48.876;8.962;2022-12-13T16:59:31;28.07;;;15.80;;
10471;SDS011;5283;48.876;8.962;2022-12-13T17:01:57;23.73;;;15.47;;
10471;SDS011;5283;48.876;8.962;2022-12-13T17:04:24;23.10;;;15.17;;
10471;SDS011;5283;48.876;8.962;2022-12-13T17:06:52;20.37;;;11.73;;
10471;SDS011;5283;48.876;8.962;2022-12-13T17:09:19;17.60;;;11.43;;
10471;SDS011;5283;48.876;8.962;2022-12-13T17:11:46;18.97;;;10.93;;
10471;SDS011;5283;48.876;8.962;2022-12-13T17:14:12;17.33;;;10.93;;
10471;SDS011;5283;48.876;8.962;2022-12-13T17:16:39;17.17;;;10.50;;
10471;SDS011;5283;48.876;8.962;2022-12-13T17:19:07;14.70;;;10.53;;